Alpine, WY

12:30 PM MST on November 27, 2014 (GMT -0700)
One Mile South of | Change Station
CLOSE
Current Station
Personal Weather Station
Location: Alpine, WY
Elevation: 5650 ft
Nearby Weather Stations
Active Advisory: Special Weather Statement

Elev 5650 ft 43.16 °N, 111.03 °W | Updated 7 seconds ago

Mostly Cloudy
Mostly Cloudy
40.8 °F
Feels Like 41 °F
N
0.0
Wind Variable Wind from WNW
Gusts 3.0 mph

Today
High -- | Low -- °F
--% Chance of Precip.
Yesterday
High -- | Low -- °F
Precip. -- in
7:31 AM 4:51 PM
Waxing Crescent, 32% visible
Pressure 30.26 in
Visibility 10.0 miles
Clouds Clear
Windchill 41 °F
Dew Point 30 °F
Humidity 66%
Rainfall 0.00 in
Snow Depth Not available.
UV 2.1 out of 12
Pollen 1.10 out of 12
Air Quality Not available.
Flu Activity Not available.
METAR KAFO 271915Z AUTO 00000KT 10SM CLR 08/M05 A3026 RMK AO2

More Conditions Fewer Conditions

Pressure 30.26 in
Visibility 10.0 miles
Clouds Clear
Windchill 41 °F
Dew Point 30 °F
Humidity 66%
Rainfall 0.00 in
Snow Depth Not available.
UV 2.1 out of 12
Pollen 1.10 out of 12
Air Quality Not available.
Flu Activity Not available.
METAR KAFO 271915Z AUTO 00000KT 10SM CLR 08/M05 A3026 RMK AO2

More Conditions Fewer Conditions

10-Day Weather Forecast

Almanac

Astronomy

Nov. 27, 2014 Rise Set
Actual Time
Civil Twilight
Nautical Twilight
Astronomical Twilight
Moon
Length of Visible Light
Length of Day
Tomorrow will be .
, % of the Moon is Illuminated

Today's Extremes

State Highs State Lows

Community

WunderPhotos

Upload Photos

1,774,092 photos uploaded!

WunderBlogs® & News

Nearby

Air Quality

  Air Quality AQ Index Pollutant
Not available.

Snow Depth

Station Depth Elevation

Earthquake Activity

City Distance Mag. Time & Date
Minimum magnitude displayed is 2.5.

Coastal Water Temperatures

Place Temperature

Nearby Weather Stations